sensor_id;sensor_type;location;lat;lon;timestamp;P1;durP1;ratioP1;P2;durP2;ratioP2
28427;SDS011;15662;49.128;8.520;2023-04-15T00:00:56;6.18;;;2.72;;
28427;SDS011;15662;49.128;8.520;2023-04-15T00:03:29;3.70;;;2.70;;
28427;SDS011;15662;49.128;8.520;2023-04-15T00:05:57;3.67;;;2.72;;
28427;SDS011;15662;49.128;8.520;2023-04-15T00:08:26;4.85;;;2.33;;
28427;SDS011;15662;49.128;8.520;2023-04-15T00:10:55;3.05;;;2.50;;
28427;SDS011;15662;49.128;8.520;2023-04-15T00:13:25;3.70;;;2.47;;
28427;SDS011;15662;49.128;8.520;2023-04-15T00:15:57;9.18;;;2.95;;
28427;SDS011;15662;49.128;8.520;2023-04-15T00:18:26;2.63;;;2.33;;
28427;SDS011;15662;49.128;8.520;2023-04-15T00:20:56;3.03;;;2.67;;
28427;SDS011;15662;49.128;8.520;2023-04-15T00:23:28;9.55;;;3.20;;
28427;SDS011;15662;49.128;8.520;2023-04-15T00:25:56;6.10;;;3.60;;
28427;SDS011;15662;49.128;8.520;2023-04-15T00:28:25;6.38;;;3.40;;
28427;SDS011;15662;49.128;8.520;2023-04-15T00:30:54;7.20;;;3.60;;
28427;SDS011;15662;49.128;8.520;2023-04-15T00:33:22;4.60;;;3.15;;
28427;SDS011;15662;49.128;8.520;2023-04-15T00:35:50;4.00;;;2.90;;
28427;SDS011;15662;49.128;8.520;2023-04-15T00:38:18;4.63;;;3.03;;
28427;SDS011;15662;49.128;8.520;2023-04-15T00:40:46;3.55;;;2.55;;
28427;SDS011;15662;49.128;8.520;2023-04-15T00:43:14;4.28;;;2.72;;
28427;SDS011;15662;49.128;8.520;2023-04-15T00:45:43;3.53;;;2.65;;
28427;SDS011;15662;49.128;8.520;2023-04-15T00:48:13;2.88;;;2.40;;
28427;SDS011;15662;49.128;8.520;2023-04-15T00:50:42;4.30;;;2.13;;
28427;SDS011;15662;49.128;8.520;2023-04-15T00:53:10;3.13;;;2.40;;
28427;SDS011;15662;49.128;8.520;2023-04-15T00:55:38;2.80;;;2.40;;
28427;SDS011;15662;49.128;8.520;2023-04-15T00:58:06;3.30;;;2.45;;
28427;SDS011;15662;49.128;8.520;2023-04-15T01:00:34;3.22;;;2.38;;
28427;SDS011;15662;49.128;8.520;2023-04-15T01:03:02;3.90;;;2.28;;
28427;SDS011;15662;49.128;8.520;2023-04-15T01:05:30;4.13;;;2.58;;
28427;SDS011;15662;49.128;8.520;2023-04-15T01:07:59;3.65;;;2.38;;
28427;SDS011;15662;49.128;8.520;2023-04-15T01:10:27;5.32;;;2.65;;
28427;SDS011;15662;49.128;8.520;2023-04-15T01:12:56;4.40;;;2.90;;
28427;SDS011;15662;49.128;8.520;2023-04-15T01:15:25;6.05;;;2.75;;
28427;SDS011;15662;49.128;8.520;2023-04-15T01:17:53;3.10;;;2.40;;
28427;SDS011;15662;49.128;8.520;2023-04-15T01:20:21;3.92;;;2.80;;
28427;SDS011;15662;49.128;8.520;2023-04-15T01:22:49;3.55;;;2.53;;
28427;SDS011;15662;49.128;8.520;2023-04-15T01:25:17;3.50;;;2.40;;
28427;SDS011;15662;49.128;8.520;2023-04-15T01:27:48;8.48;;;3.33;;
28427;SDS011;15662;49.128;8.520;2023-04-15T01:30:16;7.78;;;3.40;;
28427;SDS011;15662;49.128;8.520;2023-04-15T01:32:44;4.75;;;3.30;;
28427;SDS011;15662;49.128;8.520;2023-04-15T01:35:12;4.55;;;2.80;;
28427;SDS011;15662;49.128;8.520;2023-04-15T01:37:40;4.65;;;2.88;;
28427;SDS011;15662;49.128;8.520;2023-04-15T01:40:08;4.15;;;2.58;;
28427;SDS011;15662;49.128;8.520;2023-04-15T01:42:36;3.47;;;2.70;;
28427;SDS011;15662;49.128;8.520;2023-04-15T01:45:04;4.65;;;2.80;;
28427;SDS011;15662;49.128;8.520;2023-04-15T01:47:33;4.03;;;2.65;;
28427;SDS011;15662;49.128;8.520;2023-04-15T01:50:01;7.70;;;2.58;;
28427;SDS011;15662;49.128;8.520;2023-04-15T01:52:29;3.30;;;2.28;;
28427;SDS011;15662;49.128;8.520;2023-04-15T01:54:56;2.92;;;2.50;;
28427;SDS011;15662;49.128;8.520;2023-04-15T01:57:24;2.47;;;2.03;;
28427;SDS011;15662;49.128;8.520;2023-04-15T01:59:52;2.47;;;2.17;;
28427;SDS011;15662;49.128;8.520;2023-04-15T02:02:20;4.68;;;2.33;;
28427;SDS011;15662;49.128;8.520;2023-04-15T02:04:48;3.00;;;2.20;;
28427;SDS011;15662;49.128;8.520;2023-04-15T02:07:16;5.10;;;2.33;;
28427;SDS011;15662;49.128;8.520;2023-04-15T02:09:44;4.43;;;2.10;;
28427;SDS011;15662;49.128;8.520;2023-04-15T02:12:12;3.80;;;2.60;;
28427;SDS011;15662;49.128;8.520;2023-04-15T02:14:40;3.67;;;2.60;;
28427;SDS011;15662;49.128;8.520;2023-04-15T02:17:08;4.20;;;2.40;;
28427;SDS011;15662;49.128;8.520;2023-04-15T02:19:35;3.20;;;2.10;;
28427;SDS011;15662;49.128;8.520;2023-04-15T02:22:03;3.80;;;2.55;;
28427;SDS011;15662;49.128;8.520;2023-04-15T02:24:33;3.78;;;2.45;;
28427;SDS011;15662;49.128;8.520;2023-04-15T02:27:02;2.42;;;2.22;;
28427;SDS011;15662;49.128;8.520;2023-04-15T02:29:30;2.47;;;2.00;;
28427;SDS011;15662;49.128;8.520;2023-04-15T02:32:00;3.47;;;2.40;;
28427;SDS011;15662;49.128;8.520;2023-04-15T02:34:28;3.25;;;2.25;;
28427;SDS011;15662;49.128;8.520;2023-04-15T02:36:56;3.17;;;2.60;;
28427;SDS011;15662;49.128;8.520;2023-04-15T02:39:25;4.20;;;2.40;;
28427;SDS011;15662;49.128;8.520;2023-04-15T02:41:53;2.53;;;2.05;;
28427;SDS011;15662;49.128;8.520;2023-04-15T02:44:21;2.95;;;2.10;;
28427;SDS011;15662;49.128;8.520;2023-04-15T02:46:54;4.15;;;2.40;;
28427;SDS011;15662;49.128;8.520;2023-04-15T02:49:22;4.80;;;2.40;;
28427;SDS011;15662;49.128;8.520;2023-04-15T02:51:51;3.88;;;2.65;;
28427;SDS011;15662;49.128;8.520;2023-04-15T02:54:20;4.88;;;2.72;;
28427;SDS011;15662;49.128;8.520;2023-04-15T02:56:52;2.40;;;2.20;;
28427;SDS011;15662;49.128;8.520;2023-04-15T02:59:22;2.50;;;2.17;;
28427;SDS011;15662;49.128;8.520;2023-04-15T03:01:49;2.67;;;1.98;;
28427;SDS011;15662;49.128;8.520;2023-04-15T03:04:17;3.47;;;2.15;;
28427;SDS011;15662;49.128;8.520;2023-04-15T03:06:45;4.10;;;2.00;;
28427;SDS011;15662;49.128;8.520;2023-04-15T03:09:13;3.85;;;2.40;;
28427;SDS011;15662;49.128;8.520;2023-04-15T03:11:42;2.95;;;2.17;;
28427;SDS011;15662;49.128;8.520;2023-04-15T03:14:10;2.45;;;2.25;;
28427;SDS011;15662;49.128;8.520;2023-04-15T03:16:41;3.50;;;2.40;;
28427;SDS011;15662;49.128;8.520;2023-04-15T03:19:10;3.67;;;2.53;;
28427;SDS011;15662;49.128;8.520;2023-04-15T03:21:40;3.30;;;2.67;;
28427;SDS011;15662;49.128;8.520;2023-04-15T03:24:08;3.38;;;2.67;;
28427;SDS011;15662;49.128;8.520;2023-04-15T03:26:37;4.25;;;2.80;;
28427;SDS011;15662;49.128;8.520;2023-04-15T03:29:10;3.80;;;2.53;;
28427;SDS011;15662;49.128;8.520;2023-04-15T03:31:39;3.88;;;2.60;;
28427;SDS011;15662;49.128;8.520;2023-04-15T03:34:07;4.72;;;2.58;;
28427;SDS011;15662;49.128;8.520;2023-04-15T03:36:35;2.65;;;2.35;;
28427;SDS011;15662;49.128;8.520;2023-04-15T03:39:03;4.18;;;2.63;;
28427;SDS011;15662;49.128;8.520;2023-04-15T03:41:31;6.22;;;2.50;;
28427;SDS011;15662;49.128;8.520;2023-04-15T03:43:59;6.13;;;3.22;;
28427;SDS011;15662;49.128;8.520;2023-04-15T03:46:27;4.88;;;2.90;;
28427;SDS011;15662;49.128;8.520;2023-04-15T03:48:55;5.93;;;3.30;;
28427;SDS011;15662;49.128;8.520;2023-04-15T03:51:22;3.72;;;2.72;;
28427;SDS011;15662;49.128;8.520;2023-04-15T03:53:50;4.30;;;2.92;;
28427;SDS011;15662;49.128;8.520;2023-04-15T03:56:18;3.83;;;2.58;;
28427;SDS011;15662;49.128;8.520;2023-04-15T03:58:45;3.72;;;2.80;;
28427;SDS011;15662;49.128;8.520;2023-04-15T04:01:13;3.85;;;2.58;;
28427;SDS011;15662;49.128;8.520;2023-04-15T04:03:41;5.75;;;2.50;;
28427;SDS011;15662;49.128;8.520;2023-04-15T04:06:09;3.08;;;2.20;;
28427;SDS011;15662;49.128;8.520;2023-04-15T04:08:38;4.07;;;2.50;;
28427;SDS011;15662;49.128;8.520;2023-04-15T04:11:06;2.40;;;2.20;;
28427;SDS011;15662;49.128;8.520;2023-04-15T04:13:33;2.33;;;2.13;;
28427;SDS011;15662;49.128;8.520;2023-04-15T04:16:02;3.38;;;2.22;;
28427;SDS011;15662;49.128;8.520;2023-04-15T04:18:33;4.10;;;2.20;;
28427;SDS011;15662;49.128;8.520;2023-04-15T04:21:00;4.00;;;2.38;;
28427;SDS011;15662;49.128;8.520;2023-04-15T04:23:28;2.47;;;1.92;;
28427;SDS011;15662;49.128;8.520;2023-04-15T04:25:56;3.22;;;2.10;;
28427;SDS011;15662;49.128;8.520;2023-04-15T04:28:24;3.15;;;2.20;;
28427;SDS011;15662;49.128;8.520;2023-04-15T04:30:51;2.83;;;2.42;;
28427;SDS011;15662;49.128;8.520;2023-04-15T04:33:19;4.47;;;3.67;;
28427;SDS011;15662;49.128;8.520;2023-04-15T04:35:47;5.13;;;2.80;;
28427;SDS011;15662;49.128;8.520;2023-04-15T04:38:15;3.15;;;2.72;;
28427;SDS011;15662;49.128;8.520;2023-04-15T04:40:42;4.65;;;2.38;;
28427;SDS011;15662;49.128;8.520;2023-04-15T04:43:10;5.32;;;2.78;;
28427;SDS011;15662;49.128;8.520;2023-04-15T04:45:39;3.70;;;2.80;;
28427;SDS011;15662;49.128;8.520;2023-04-15T04:48:07;7.30;;;3.05;;
28427;SDS011;15662;49.128;8.520;2023-04-15T04:50:36;3.60;;;2.88;;
28427;SDS011;15662;49.128;8.520;2023-04-15T04:53:04;5.55;;;3.63;;
28427;SDS011;15662;49.128;8.520;2023-04-15T04:55:31;3.90;;;3.10;;
28427;SDS011;15662;49.128;8.520;2023-04-15T04:58:02;2.67;;;1.80;;
28427;SDS011;15662;49.128;8.520;2023-04-15T05:00:30;3.60;;;2.60;;
28427;SDS011;15662;49.128;8.520;2023-04-15T05:02:58;4.60;;;2.90;;
28427;SDS011;15662;49.128;8.520;2023-04-15T05:05:27;3.17;;;2.42;;
28427;SDS011;15662;49.128;8.520;2023-04-15T05:07:54;5.70;;;2.75;;
28427;SDS011;15662;49.128;8.520;2023-04-15T05:10:22;4.57;;;2.78;;
28427;SDS011;15662;49.128;8.520;2023-04-15T05:12:50;3.25;;;2.60;;
28427;SDS011;15662;49.128;8.520;2023-04-15T05:15:18;3.38;;;2.55;;
28427;SDS011;15662;49.128;8.520;2023-04-15T05:17:46;4.07;;;2.20;;
28427;SDS011;15662;49.128;8.520;2023-04-15T05:20:14;2.67;;;2.47;;
28427;SDS011;15662;49.128;8.520;2023-04-15T05:22:41;6.63;;;2.40;;
28427;SDS011;15662;49.128;8.520;2023-04-15T05:25:09;6.85;;;2.55;;
28427;SDS011;15662;49.128;8.520;2023-04-15T05:27:38;4.03;;;2.45;;
28427;SDS011;15662;49.128;8.520;2023-04-15T05:30:06;2.70;;;2.22;;
28427;SDS011;15662;49.128;8.520;2023-04-15T05:32:34;3.42;;;2.50;;
28427;SDS011;15662;49.128;8.520;2023-04-15T05:35:02;3.00;;;2.22;;
28427;SDS011;15662;49.128;8.520;2023-04-15T05:37:32;2.80;;;2.47;;
28427;SDS011;15662;49.128;8.520;2023-04-15T05:40:00;2.95;;;2.60;;
28427;SDS011;15662;49.128;8.520;2023-04-15T05:42:28;3.75;;;2.53;;
28427;SDS011;15662;49.128;8.520;2023-04-15T05:44:56;3.65;;;2.65;;
28427;SDS011;15662;49.128;8.520;2023-04-15T05:47:24;3.30;;;2.72;;
28427;SDS011;15662;49.128;8.520;2023-04-15T05:49:52;4.88;;;2.72;;
28427;SDS011;15662;49.128;8.520;2023-04-15T05:52:20;3.55;;;2.80;;
28427;SDS011;15662;49.128;8.520;2023-04-15T05:54:48;4.18;;;3.05;;
28427;SDS011;15662;49.128;8.520;2023-04-15T05:57:15;4.00;;;2.92;;
28427;SDS011;15662;49.128;8.520;2023-04-15T05:59:43;5.32;;;3.15;;
28427;SDS011;15662;49.128;8.520;2023-04-15T06:02:13;4.05;;;2.80;;
28427;SDS011;15662;49.128;8.520;2023-04-15T06:04:41;3.47;;;2.65;;
28427;SDS011;15662;49.128;8.520;2023-04-15T06:07:09;3.53;;;3.22;;
28427;SDS011;15662;49.128;8.520;2023-04-15T06:09:37;5.55;;;2.92;;
28427;SDS011;15662;49.128;8.520;2023-04-15T06:12:05;3.50;;;2.72;;
28427;SDS011;15662;49.128;8.520;2023-04-15T06:14:38;3.97;;;3.13;;
28427;SDS011;15662;49.128;8.520;2023-04-15T06:17:06;6.35;;;3.17;;
28427;SDS011;15662;49.128;8.520;2023-04-15T06:19:34;5.80;;;3.28;;
28427;SDS011;15662;49.128;8.520;2023-04-15T06:22:02;3.28;;;3.00;;
28427;SDS011;15662;49.128;8.520;2023-04-15T06:24:32;4.18;;;3.20;;
28427;SDS011;15662;49.128;8.520;2023-04-15T06:27:02;5.68;;;3.10;;
28427;SDS011;15662;49.128;8.520;2023-04-15T06:29:30;6.03;;;3.33;;
28427;SDS011;15662;49.128;8.520;2023-04-15T06:31:58;4.68;;;3.03;;
28427;SDS011;15662;49.128;8.520;2023-04-15T06:34:26;6.05;;;3.35;;
28427;SDS011;15662;49.128;8.520;2023-04-15T06:36:54;4.93;;;3.15;;
28427;SDS011;15662;49.128;8.520;2023-04-15T06:39:21;5.70;;;3.35;;
28427;SDS011;15662;49.128;8.520;2023-04-15T06:41:49;4.00;;;2.92;;
28427;SDS011;15662;49.128;8.520;2023-04-15T06:44:20;4.40;;;2.97;;
28427;SDS011;15662;49.128;8.520;2023-04-15T06:46:48;4.10;;;2.88;;
28427;SDS011;15662;49.128;8.520;2023-04-15T06:49:16;3.90;;;2.97;;
28427;SDS011;15662;49.128;8.520;2023-04-15T06:51:44;3.95;;;2.60;;
28427;SDS011;15662;49.128;8.520;2023-04-15T06:54:12;4.78;;;3.00;;
28427;SDS011;15662;49.128;8.520;2023-04-15T06:56:42;5.18;;;2.60;;
28427;SDS011;15662;49.128;8.520;2023-04-15T06:59:09;3.55;;;2.45;;
28427;SDS011;15662;49.128;8.520;2023-04-15T07:01:37;4.32;;;2.67;;
28427;SDS011;15662;49.128;8.520;2023-04-15T07:04:05;3.33;;;2.72;;
28427;SDS011;15662;49.128;8.520;2023-04-15T07:06:33;2.53;;;2.33;;
28427;SDS011;15662;49.128;8.520;2023-04-15T07:09:01;11.57;;;3.03;;
28427;SDS011;15662;49.128;8.520;2023-04-15T07:11:31;2.65;;;2.30;;
28427;SDS011;15662;49.128;8.520;2023-04-15T07:13:59;2.45;;;2.15;;
28427;SDS011;15662;49.128;8.520;2023-04-15T07:16:28;5.10;;;2.38;;
28427;SDS011;15662;49.128;8.520;2023-04-15T07:18:56;4.10;;;2.22;;
28427;SDS011;15662;49.128;8.520;2023-04-15T07:21:24;4.28;;;2.70;;
28427;SDS011;15662;49.128;8.520;2023-04-15T07:23:53;4.80;;;2.60;;
28427;SDS011;15662;49.128;8.520;2023-04-15T07:26:21;4.68;;;2.17;;
28427;SDS011;15662;49.128;8.520;2023-04-15T07:28:50;4.45;;;2.15;;
28427;SDS011;15662;49.128;8.520;2023-04-15T07:31:18;3.47;;;2.20;;
28427;SDS011;15662;49.128;8.520;2023-04-15T07:33:45;3.83;;;2.10;;
28427;SDS011;15662;49.128;8.520;2023-04-15T07:36:13;3.13;;;1.83;;
28427;SDS011;15662;49.128;8.520;2023-04-15T07:38:41;4.82;;;2.25;;
28427;SDS011;15662;49.128;8.520;2023-04-15T07:41:09;3.70;;;2.15;;
28427;SDS011;15662;49.128;8.520;2023-04-15T07:43:40;4.00;;;1.90;;
28427;SDS011;15662;49.128;8.520;2023-04-15T07:46:08;3.25;;;2.13;;
28427;SDS011;15662;49.128;8.520;2023-04-15T07:48:37;3.50;;;1.90;;
28427;SDS011;15662;49.128;8.520;2023-04-15T07:51:05;4.07;;;1.90;;
28427;SDS011;15662;49.128;8.520;2023-04-15T07:53:33;6.65;;;1.98;;
28427;SDS011;15662;49.128;8.520;2023-04-15T07:56:01;2.85;;;2.08;;
28427;SDS011;15662;49.128;8.520;2023-04-15T07:58:29;2.78;;;2.55;;
28427;SDS011;15662;49.128;8.520;2023-04-15T08:00:59;4.07;;;2.80;;
28427;SDS011;15662;49.128;8.520;2023-04-15T08:03:27;5.13;;;2.35;;
28427;SDS011;15662;49.128;8.520;2023-04-15T08:05:55;2.60;;;2.40;;
28427;SDS011;15662;49.128;8.520;2023-04-15T08:08:23;3.25;;;2.00;;
28427;SDS011;15662;49.128;8.520;2023-04-15T08:10:51;5.70;;;2.17;;
28427;SDS011;15662;49.128;8.520;2023-04-15T08:13:19;5.07;;;2.40;;
28427;SDS011;15662;49.128;8.520;2023-04-15T08:15:56;3.92;;;2.40;;
28427;SDS011;15662;49.128;8.520;2023-04-15T08:18:54;4.28;;;2.63;;
28427;SDS011;15662;49.128;8.520;2023-04-15T08:21:23;3.53;;;2.63;;
28427;SDS011;15662;49.128;8.520;2023-04-15T08:23:52;4.95;;;2.30;;
28427;SDS011;15662;49.128;8.520;2023-04-15T08:26:20;4.25;;;2.30;;
28427;SDS011;15662;49.128;8.520;2023-04-15T08:28:48;4.28;;;2.30;;
28427;SDS011;15662;49.128;8.520;2023-04-15T08:31:17;3.05;;;1.83;;
28427;SDS011;15662;49.128;8.520;2023-04-15T08:33:46;4.38;;;2.03;;
28427;SDS011;15662;49.128;8.520;2023-04-15T08:36:14;3.60;;;2.10;;
28427;SDS011;15662;49.128;8.520;2023-04-15T08:38:43;8.15;;;2.13;;
28427;SDS011;15662;49.128;8.520;2023-04-15T08:41:17;4.82;;;2.30;;
28427;SDS011;15662;49.128;8.520;2023-04-15T08:44:04;8.75;;;2.03;;
28427;SDS011;15662;49.128;8.520;2023-04-15T08:46:32;4.23;;;2.10;;
28427;SDS011;15662;49.128;8.520;2023-04-15T08:49:04;3.45;;;2.10;;
28427;SDS011;15662;49.128;8.520;2023-04-15T08:51:35;5.30;;;2.33;;
28427;SDS011;15662;49.128;8.520;2023-04-15T08:54:03;4.13;;;2.75;;
28427;SDS011;15662;49.128;8.520;2023-04-15T08:56:32;5.53;;;3.20;;
28427;SDS011;15662;49.128;8.520;2023-04-15T08:59:01;4.88;;;3.80;;
28427;SDS011;15662;49.128;8.520;2023-04-15T09:01:30;11.18;;;3.55;;
28427;SDS011;15662;49.128;8.520;2023-04-15T09:03:59;4.95;;;3.53;;
28427;SDS011;15662;49.128;8.520;2023-04-15T09:06:30;4.28;;;3.70;;
28427;SDS011;15662;49.128;8.520;2023-04-15T09:08:57;4.35;;;3.80;;
28427;SDS011;15662;49.128;8.520;2023-04-15T09:11:28;6.00;;;3.65;;
28427;SDS011;15662;49.128;8.520;2023-04-15T09:13:57;8.07;;;4.18;;
28427;SDS011;15662;49.128;8.520;2023-04-15T09:16:25;4.57;;;3.33;;
28427;SDS011;15662;49.128;8.520;2023-04-15T09:18:53;4.38;;;3.15;;
28427;SDS011;15662;49.128;8.520;2023-04-15T09:21:21;5.13;;;3.20;;
28427;SDS011;15662;49.128;8.520;2023-04-15T09:23:57;4.97;;;3.20;;
28427;SDS011;15662;49.128;8.520;2023-04-15T09:26:37;5.50;;;3.33;;
28427;SDS011;15662;49.128;8.520;2023-04-15T09:29:07;6.03;;;3.40;;
28427;SDS011;15662;49.128;8.520;2023-04-15T09:31:40;5.32;;;3.63;;
28427;SDS011;15662;49.128;8.520;2023-04-15T09:34:09;6.15;;;3.83;;
28427;SDS011;15662;49.128;8.520;2023-04-15T09:36:50;5.55;;;3.60;;
28427;SDS011;15662;49.128;8.520;2023-04-15T09:39:21;5.80;;;4.18;;
28427;SDS011;15662;49.128;8.520;2023-04-15T09:42:04;6.75;;;3.63;;
28427;SDS011;15662;49.128;8.520;2023-04-15T09:44:33;4.78;;;4.13;;
28427;SDS011;15662;49.128;8.520;2023-04-15T09:47:04;6.97;;;4.20;;
28427;SDS011;15662;49.128;8.520;2023-04-15T09:49:32;6.05;;;3.92;;
28427;SDS011;15662;49.128;8.520;2023-04-15T09:52:00;6.57;;;4.28;;
28427;SDS011;15662;49.128;8.520;2023-04-15T09:54:36;6.45;;;4.40;;
28427;SDS011;15662;49.128;8.520;2023-04-15T09:57:05;7.18;;;4.25;;
28427;SDS011;15662;49.128;8.520;2023-04-15T09:59:36;7.88;;;4.38;;
28427;SDS011;15662;49.128;8.520;2023-04-15T10:02:04;6.40;;;4.40;;
28427;SDS011;15662;49.128;8.520;2023-04-15T10:04:34;6.85;;;4.25;;
28427;SDS011;15662;49.128;8.520;2023-04-15T10:07:06;7.18;;;4.22;;
28427;SDS011;15662;49.128;8.520;2023-04-15T10:09:35;7.22;;;4.13;;
28427;SDS011;15662;49.128;8.520;2023-04-15T10:12:05;7.00;;;3.80;;
28427;SDS011;15662;49.128;8.520;2023-04-15T10:14:34;8.40;;;4.43;;
28427;SDS011;15662;49.128;8.520;2023-04-15T10:17:04;6.07;;;4.13;;
28427;SDS011;15662;49.128;8.520;2023-04-15T10:19:35;6.83;;;4.47;;
28427;SDS011;15662;49.128;8.520;2023-04-15T10:22:06;5.95;;;4.00;;
28427;SDS011;15662;49.128;8.520;2023-04-15T10:24:34;6.60;;;4.40;;
28427;SDS011;15662;49.128;8.520;2023-04-15T10:27:03;7.80;;;4.78;;
28427;SDS011;15662;49.128;8.520;2023-04-15T10:29:31;4.60;;;4.07;;
28427;SDS011;15662;49.128;8.520;2023-04-15T10:32:01;7.15;;;4.00;;
28427;SDS011;15662;49.128;8.520;2023-04-15T10:34:30;5.85;;;4.20;;
28427;SDS011;15662;49.128;8.520;2023-04-15T10:37:01;7.03;;;4.00;;
28427;SDS011;15662;49.128;8.520;2023-04-15T10:42:06;6.20;;;3.92;;
28427;SDS011;15662;49.128;8.520;2023-04-15T10:44:44;4.70;;;3.30;;
28427;SDS011;15662;49.128;8.520;2023-04-15T10:47:16;5.53;;;3.45;;
28427;SDS011;15662;49.128;8.520;2023-04-15T10:49:50;4.77;;;3.60;;
28427;SDS011;15662;49.128;8.520;2023-04-15T10:52:26;3.22;;;2.92;;
28427;SDS011;15662;49.128;8.520;2023-04-15T10:55:11;5.70;;;3.20;;
28427;SDS011;15662;49.128;8.520;2023-04-15T10:57:44;3.90;;;2.60;;
28427;SDS011;15662;49.128;8.520;2023-04-15T11:00:12;5.35;;;2.92;;
28427;SDS011;15662;49.128;8.520;2023-04-15T11:05:48;4.55;;;2.58;;
28427;SDS011;15662;49.128;8.520;2023-04-15T11:08:18;2.78;;;2.47;;
28427;SDS011;15662;49.128;8.520;2023-04-15T11:13:16;3.63;;;2.88;;
28427;SDS011;15662;49.128;8.520;2023-04-15T11:15:52;5.00;;;3.13;;
28427;SDS011;15662;49.128;8.520;2023-04-15T11:18:28;4.82;;;3.20;;
28427;SDS011;15662;49.128;8.520;2023-04-15T11:20:58;5.25;;;3.40;;
28427;SDS011;15662;49.128;8.520;2023-04-15T11:23:33;5.43;;;3.47;;
28427;SDS011;15662;49.128;8.520;2023-04-15T11:26:13;7.78;;;3.15;;
28427;SDS011;15662;49.128;8.520;2023-04-15T11:28:44;3.35;;;2.60;;
28427;SDS011;15662;49.128;8.520;2023-04-15T11:31:14;2.83;;;2.40;;
28427;SDS011;15662;49.128;8.520;2023-04-15T11:36:26;3.65;;;2.80;;
28427;SDS011;15662;49.128;8.520;2023-04-15T11:38:56;4.35;;;2.40;;
28427;SDS011;15662;49.128;8.520;2023-04-15T11:41:25;3.55;;;2.50;;
28427;SDS011;15662;49.128;8.520;2023-04-15T11:43:53;5.75;;;2.78;;
28427;SDS011;15662;49.128;8.520;2023-04-15T11:46:27;5.60;;;3.22;;
28427;SDS011;15662;49.128;8.520;2023-04-15T11:48:59;3.33;;;2.40;;
28427;SDS011;15662;49.128;8.520;2023-04-15T11:51:31;3.80;;;2.78;;
28427;SDS011;15662;49.128;8.520;2023-04-15T11:54:00;2.92;;;2.67;;
28427;SDS011;15662;49.128;8.520;2023-04-15T11:56:29;2.95;;;2.60;;
28427;SDS011;15662;49.128;8.520;2023-04-15T11:58:58;4.78;;;2.30;;
28427;SDS011;15662;49.128;8.520;2023-04-15T12:01:30;2.33;;;2.13;;
28427;SDS011;15662;49.128;8.520;2023-04-15T12:04:09;5.53;;;2.75;;
28427;SDS011;15662;49.128;8.520;2023-04-15T12:06:50;3.45;;;2.67;;
28427;SDS011;15662;49.128;8.520;2023-04-15T12:09:19;5.28;;;3.03;;
28427;SDS011;15662;49.128;8.520;2023-04-15T12:11:48;5.85;;;3.40;;
28427;SDS011;15662;49.128;8.520;2023-04-15T12:14:24;3.50;;;2.25;;
28427;SDS011;15662;49.128;8.520;2023-04-15T12:17:07;3.13;;;2.60;;
28427;SDS011;15662;49.128;8.520;2023-04-15T12:19:38;4.30;;;2.95;;
28427;SDS011;15662;49.128;8.520;2023-04-15T12:22:08;4.70;;;2.50;;
28427;SDS011;15662;49.128;8.520;2023-04-15T12:24:43;2.65;;;2.13;;
28427;SDS011;15662;49.128;8.520;2023-04-15T12:27:15;5.10;;;2.58;;
28427;SDS011;15662;49.128;8.520;2023-04-15T12:29:43;3.05;;;1.60;;
28427;SDS011;15662;49.128;8.520;2023-04-15T12:32:16;3.63;;;1.50;;
28427;SDS011;15662;49.128;8.520;2023-04-15T12:34:50;1.38;;;1.27;;
28427;SDS011;15662;49.128;8.520;2023-04-15T12:37:21;2.05;;;1.40;;
28427;SDS011;15662;49.128;8.520;2023-04-15T12:39:50;2.65;;;2.00;;
28427;SDS011;15662;49.128;8.520;2023-04-15T12:42:18;4.18;;;1.83;;
28427;SDS011;15662;49.128;8.520;2023-04-15T12:44:46;1.67;;;1.55;;
28427;SDS011;15662;49.128;8.520;2023-04-15T12:47:14;1.88;;;1.60;;
28427;SDS011;15662;49.128;8.520;2023-04-15T12:49:44;1.67;;;1.58;;
28427;SDS011;15662;49.128;8.520;2023-04-15T12:52:13;5.03;;;1.95;;
28427;SDS011;15662;49.128;8.520;2023-04-15T12:54:43;4.05;;;1.80;;
28427;SDS011;15662;49.128;8.520;2023-04-15T12:57:10;2.95;;;2.10;;
28427;SDS011;15662;49.128;8.520;2023-04-15T12:59:38;3.10;;;2.53;;
28427;SDS011;15662;49.128;8.520;2023-04-15T13:02:06;4.38;;;2.10;;
28427;SDS011;15662;49.128;8.520;2023-04-15T13:04:34;2.40;;;2.17;;
28427;SDS011;15662;49.128;8.520;2023-04-15T13:07:04;1.75;;;1.60;;
28427;SDS011;15662;49.128;8.520;2023-04-15T13:09:32;6.32;;;2.10;;
28427;SDS011;15662;49.128;8.520;2023-04-15T13:12:01;4.57;;;2.70;;
28427;SDS011;15662;49.128;8.520;2023-04-15T13:14:31;2.63;;;2.42;;
28427;SDS011;15662;49.128;8.520;2023-04-15T13:16:58;4.72;;;2.55;;
28427;SDS011;15662;49.128;8.520;2023-04-15T13:19:26;2.42;;;2.20;;
28427;SDS011;15662;49.128;8.520;2023-04-15T13:21:54;3.05;;;2.28;;
28427;SDS011;15662;49.128;8.520;2023-04-15T13:24:22;5.22;;;3.45;;
28427;SDS011;15662;49.128;8.520;2023-04-15T13:26:49;8.38;;;5.60;;
28427;SDS011;15662;49.128;8.520;2023-04-15T13:29:18;5.07;;;3.58;;
28427;SDS011;15662;49.128;8.520;2023-04-15T13:31:46;3.58;;;2.92;;
28427;SDS011;15662;49.128;8.520;2023-04-15T13:34:13;3.35;;;2.60;;
28427;SDS011;15662;49.128;8.520;2023-04-15T13:36:41;4.43;;;2.42;;
28427;SDS011;15662;49.128;8.520;2023-04-15T13:39:09;2.90;;;1.83;;
28427;SDS011;15662;49.128;8.520;2023-04-15T13:41:37;4.38;;;1.73;;
28427;SDS011;15662;49.128;8.520;2023-04-15T13:44:07;2.83;;;1.90;;
28427;SDS011;15662;49.128;8.520;2023-04-15T13:46:35;2.55;;;1.83;;
28427;SDS011;15662;49.128;8.520;2023-04-15T13:49:03;1.73;;;1.58;;
28427;SDS011;15662;49.128;8.520;2023-04-15T13:51:32;3.60;;;2.03;;
28427;SDS011;15662;49.128;8.520;2023-04-15T13:54:01;3.17;;;2.47;;
28427;SDS011;15662;49.128;8.520;2023-04-15T13:56:35;3.13;;;2.30;;
28427;SDS011;15662;49.128;8.520;2023-04-15T13:59:03;3.75;;;2.80;;
28427;SDS011;15662;49.128;8.520;2023-04-15T14:01:32;1.77;;;1.67;;
28427;SDS011;15662;49.128;8.520;2023-04-15T14:04:01;3.03;;;2.05;;
28427;SDS011;15662;49.128;8.520;2023-04-15T14:06:29;2.28;;;1.80;;
28427;SDS011;15662;49.128;8.520;2023-04-15T14:08:59;3.30;;;2.28;;
28427;SDS011;15662;49.128;8.520;2023-04-15T14:11:27;3.15;;;2.20;;
28427;SDS011;15662;49.128;8.520;2023-04-15T14:13:55;5.13;;;2.00;;
28427;SDS011;15662;49.128;8.520;2023-04-15T14:16:25;2.83;;;1.85;;
28427;SDS011;15662;49.128;8.520;2023-04-15T14:18:55;3.63;;;1.50;;
28427;SDS011;15662;49.128;8.520;2023-04-15T14:21:24;24.73;;;15.50;;
28427;SDS011;15662;49.128;8.520;2023-04-15T14:23:53;7.55;;;5.03;;
28427;SDS011;15662;49.128;8.520;2023-04-15T14:26:21;4.57;;;3.00;;
28427;SDS011;15662;49.128;8.520;2023-04-15T14:28:50;6.70;;;4.45;;
28427;SDS011;15662;49.128;8.520;2023-04-15T14:31:18;3.38;;;2.45;;
28427;SDS011;15662;49.128;8.520;2023-04-15T14:33:46;2.15;;;1.80;;
28427;SDS011;15662;49.128;8.520;2023-04-15T14:36:14;16.77;;;9.00;;
28427;SDS011;15662;49.128;8.520;2023-04-15T14:38:42;7.00;;;4.78;;
28427;SDS011;15662;49.128;8.520;2023-04-15T14:41:12;9.10;;;5.47;;
28427;SDS011;15662;49.128;8.520;2023-04-15T14:43:40;25.98;;;13.05;;
28427;SDS011;15662;49.128;8.520;2023-04-15T14:46:09;35.08;;;18.90;;
28427;SDS011;15662;49.128;8.520;2023-04-15T14:48:37;70.15;;;38.05;;
28427;SDS011;15662;49.128;8.520;2023-04-15T14:51:05;62.28;;;33.35;;
28427;SDS011;15662;49.128;8.520;2023-04-15T14:53:33;20.83;;;12.63;;
28427;SDS011;15662;49.128;8.520;2023-04-15T14:56:00;43.65;;;22.30;;
28427;SDS011;15662;49.128;8.520;2023-04-15T14:58:28;21.80;;;12.75;;
28427;SDS011;15662;49.128;8.520;2023-04-15T15:00:56;26.27;;;14.23;;
28427;SDS011;15662;49.128;8.520;2023-04-15T15:03:24;14.38;;;8.85;;
28427;SDS011;15662;49.128;8.520;2023-04-15T15:05:53;19.02;;;11.40;;
28427;SDS011;15662;49.128;8.520;2023-04-15T15:08:21;9.27;;;6.10;;
28427;SDS011;15662;49.128;8.520;2023-04-15T15:10:49;14.95;;;8.25;;